sensor_id;sensor_type;location;lat;lon;timestamp;temperature;humidity
51500;DHT22;39101;53.478;6.158;2022-10-16T00:01:35;13.50;99.90
51500;DHT22;39101;53.478;6.158;2022-10-16T00:04:01;13.40;99.90
51500;DHT22;39101;53.478;6.158;2022-10-16T00:06:28;13.40;99.90
51500;DHT22;39101;53.478;6.158;2022-10-16T00:08:54;13.40;99.90
51500;DHT22;39101;53.478;6.158;2022-10-16T00:11:25;13.40;99.90
51500;DHT22;39101;53.478;6.158;2022-10-16T00:13:55;13.30;99.90
51500;DHT22;39101;53.478;6.158;2022-10-16T00:16:22;13.30;99.90
51500;DHT22;39101;53.478;6.158;2022-10-16T00:18:47;13.30;99.90
51500;DHT22;39101;53.478;6.158;2022-10-16T00:21:17;13.30;99.90
51500;DHT22;39101;53.478;6.158;2022-10-16T00:23:43;13.30;99.90
51500;DHT22;39101;53.478;6.158;2022-10-16T00:26:13;13.30;99.90
51500;DHT22;39101;53.478;6.158;2022-10-16T00:28:39;13.30;99.90
51500;DHT22;39101;53.478;6.158;2022-10-16T00:31:10;13.30;99.90
51500;DHT22;39101;53.478;6.158;2022-10-16T00:33:38;13.20;99.90
51500;DHT22;39101;53.478;6.158;2022-10-16T00:36:05;13.20;99.90
51500;DHT22;39101;53.478;6.158;2022-10-16T00:38:31;13.20;99.90
51500;DHT22;39101;53.478;6.158;2022-10-16T00:40:57;13.20;99.90
51500;DHT22;39101;53.478;6.158;2022-10-16T00:43:45;13.20;99.90
51500;DHT22;39101;53.478;6.158;2022-10-16T00:46:16;13.20;99.90
51500;DHT22;39101;53.478;6.158;2022-10-16T00:48:48;13.20;99.90
51500;DHT22;39101;53.478;6.158;2022-10-16T00:51:16;13.20;99.90
51500;DHT22;39101;53.478;6.158;2022-10-16T00:53:44;13.20;99.90
51500;DHT22;39101;53.478;6.158;2022-10-16T00:56:09;13.20;99.90
51500;DHT22;39101;53.478;6.158;2022-10-16T00:58:35;13.10;99.90
51500;DHT22;39101;53.478;6.158;2022-10-16T01:01:01;13.10;99.90
51500;DHT22;39101;53.478;6.158;2022-10-16T01:14:18;13.10;99.90
51500;DHT22;39101;53.478;6.158;2022-10-16T01:17:00;13.20;99.90
51500;DHT22;39101;53.478;6.158;2022-10-16T01:23:01;13.00;99.90
51500;DHT22;39101;53.478;6.158;2022-10-16T01:25:52;12.90;99.90
51500;DHT22;39101;53.478;6.158;2022-10-16T01:28:22;12.80;99.90
51500;DHT22;39101;53.478;6.158;2022-10-16T01:30:53;12.70;99.90
51500;DHT22;39101;53.478;6.158;2022-10-16T01:33:27;12.80;99.90
51500;DHT22;39101;53.478;6.158;2022-10-16T01:35:59;12.70;99.90
51500;DHT22;39101;53.478;6.158;2022-10-16T01:38:38;12.70;99.90
51500;DHT22;39101;53.478;6.158;2022-10-16T01:43:46;12.70;99.90
51500;DHT22;39101;53.478;6.158;2022-10-16T01:46:16;12.70;99.90
51500;DHT22;39101;53.478;6.158;2022-10-16T01:48:42;12.80;99.90
51500;DHT22;39101;53.478;6.158;2022-10-16T01:51:15;12.80;99.90
51500;DHT22;39101;53.478;6.158;2022-10-16T01:53:49;12.90;99.90
51500;DHT22;39101;53.478;6.158;2022-10-16T01:56:17;12.90;99.90
51500;DHT22;39101;53.478;6.158;2022-10-16T01:58:56;12.90;99.90
51500;DHT22;39101;53.478;6.158;2022-10-16T02:01:26;12.90;99.90
51500;DHT22;39101;53.478;6.158;2022-10-16T02:03:56;12.90;99.90
51500;DHT22;39101;53.478;6.158;2022-10-16T02:06:22;12.90;99.90
51500;DHT22;39101;53.478;6.158;2022-10-16T02:08:49;12.90;99.90
51500;DHT22;39101;53.478;6.158;2022-10-16T02:11:14;13.00;99.90
51500;DHT22;39101;53.478;6.158;2022-10-16T02:14:02;12.90;99.90
51500;DHT22;39101;53.478;6.158;2022-10-16T02:16:44;13.00;99.90
51500;DHT22;39101;53.478;6.158;2022-10-16T02:19:11;13.00;99.90
51500;DHT22;39101;53.478;6.158;2022-10-16T02:21:57;13.10;99.90
51500;DHT22;39101;53.478;6.158;2022-10-16T02:24:49;13.20;99.90
51500;DHT22;39101;53.478;6.158;2022-10-16T02:27:47;13.30;99.90
51500;DHT22;39101;53.478;6.158;2022-10-16T02:30:25;13.40;99.90
51500;DHT22;39101;53.478;6.158;2022-10-16T02:32:53;13.40;99.90
51500;DHT22;39101;53.478;6.158;2022-10-16T02:35:22;13.40;99.90
51500;DHT22;39101;53.478;6.158;2022-10-16T02:37:50;13.40;99.90
51500;DHT22;39101;53.478;6.158;2022-10-16T02:40:17;13.40;99.90
51500;DHT22;39101;53.478;6.158;2022-10-16T02:42:43;13.30;99.90
51500;DHT22;39101;53.478;6.158;2022-10-16T02:45:10;13.40;99.90
51500;DHT22;39101;53.478;6.158;2022-10-16T02:47:36;13.30;99.90
51500;DHT22;39101;53.478;6.158;2022-10-16T02:50:03;13.30;99.90
51500;DHT22;39101;53.478;6.158;2022-10-16T02:52:29;13.20;99.90
51500;DHT22;39101;53.478;6.158;2022-10-16T02:54:54;13.20;99.90
51500;DHT22;39101;53.478;6.158;2022-10-16T02:57:20;13.20;99.90
51500;DHT22;39101;53.478;6.158;2022-10-16T02:59:46;13.20;99.90
51500;DHT22;39101;53.478;6.158;2022-10-16T03:02:11;13.20;99.90
51500;DHT22;39101;53.478;6.158;2022-10-16T03:04:37;13.10;99.90
51500;DHT22;39101;53.478;6.158;2022-10-16T03:07:03;13.10;99.90
51500;DHT22;39101;53.478;6.158;2022-10-16T03:09:29;13.00;99.90
51500;DHT22;39101;53.478;6.158;2022-10-16T03:11:55;13.00;99.90
51500;DHT22;39101;53.478;6.158;2022-10-16T03:14:20;12.90;99.90
51500;DHT22;39101;53.478;6.158;2022-10-16T03:16:46;13.00;99.90
51500;DHT22;39101;53.478;6.158;2022-10-16T03:19:12;12.90;99.90
51500;DHT22;39101;53.478;6.158;2022-10-16T03:21:37;13.00;99.90
51500;DHT22;39101;53.478;6.158;2022-10-16T03:24:03;12.90;99.90
51500;DHT22;39101;53.478;6.158;2022-10-16T03:26:29;12.90;99.90
51500;DHT22;39101;53.478;6.158;2022-10-16T03:28:55;12.80;99.90
51500;DHT22;39101;53.478;6.158;2022-10-16T03:31:20;12.80;99.90
51500;DHT22;39101;53.478;6.158;2022-10-16T03:33:46;12.70;99.90
51500;DHT22;39101;53.478;6.158;2022-10-16T03:36:11;12.60;99.90
51500;DHT22;39101;53.478;6.158;2022-10-16T03:38:37;12.60;99.90
51500;DHT22;39101;53.478;6.158;2022-10-16T03:41:03;12.50;99.90
51500;DHT22;39101;53.478;6.158;2022-10-16T03:43:29;12.40;99.90
51500;DHT22;39101;53.478;6.158;2022-10-16T03:45:55;12.30;99.90
51500;DHT22;39101;53.478;6.158;2022-10-16T03:48:20;12.20;99.90
51500;DHT22;39101;53.478;6.158;2022-10-16T03:50:46;12.30;99.90
51500;DHT22;39101;53.478;6.158;2022-10-16T03:53:14;12.20;99.90
51500;DHT22;39101;53.478;6.158;2022-10-16T03:55:42;12.20;99.90
51500;DHT22;39101;53.478;6.158;2022-10-16T03:58:08;12.30;99.90
51500;DHT22;39101;53.478;6.158;2022-10-16T04:00:33;12.20;99.90
51500;DHT22;39101;53.478;6.158;2022-10-16T04:03:00;12.20;99.90
51500;DHT22;39101;53.478;6.158;2022-10-16T04:05:26;12.20;99.90
51500;DHT22;39101;53.478;6.158;2022-10-16T04:07:52;12.20;99.90
51500;DHT22;39101;53.478;6.158;2022-10-16T04:10:18;12.20;99.90
51500;DHT22;39101;53.478;6.158;2022-10-16T04:12:44;12.10;99.90
51500;DHT22;39101;53.478;6.158;2022-10-16T04:15:10;12.10;99.90
51500;DHT22;39101;53.478;6.158;2022-10-16T04:17:36;12.10;99.90
51500;DHT22;39101;53.478;6.158;2022-10-16T04:20:02;12.10;99.90
51500;DHT22;39101;53.478;6.158;2022-10-16T04:22:27;12.20;99.90
51500;DHT22;39101;53.478;6.158;2022-10-16T04:24:53;12.20;99.90
51500;DHT22;39101;53.478;6.158;2022-10-16T04:27:19;12.30;99.90
51500;DHT22;39101;53.478;6.158;2022-10-16T04:29:44;12.30;99.90
51500;DHT22;39101;53.478;6.158;2022-10-16T04:32:10;12.30;99.90
51500;DHT22;39101;53.478;6.158;2022-10-16T04:34:36;12.30;99.90
51500;DHT22;39101;53.478;6.158;2022-10-16T04:37:01;12.30;99.90
51500;DHT22;39101;53.478;6.158;2022-10-16T04:39:27;12.40;99.90
51500;DHT22;39101;53.478;6.158;2022-10-16T04:41:53;12.50;99.90
51500;DHT22;39101;53.478;6.158;2022-10-16T04:44:18;12.50;99.90
51500;DHT22;39101;53.478;6.158;2022-10-16T04:46:49;12.60;99.90
51500;DHT22;39101;53.478;6.158;2022-10-16T04:49:15;12.60;99.90
51500;DHT22;39101;53.478;6.158;2022-10-16T04:51:41;12.60;99.90
51500;DHT22;39101;53.478;6.158;2022-10-16T04:54:06;12.70;99.90
51500;DHT22;39101;53.478;6.158;2022-10-16T04:56:32;12.70;99.90
51500;DHT22;39101;53.478;6.158;2022-10-16T04:58:58;12.70;99.90
51500;DHT22;39101;53.478;6.158;2022-10-16T05:01:23;12.70;99.90
51500;DHT22;39101;53.478;6.158;2022-10-16T05:03:49;12.70;99.90
51500;DHT22;39101;53.478;6.158;2022-10-16T05:06:14;12.70;99.90
51500;DHT22;39101;53.478;6.158;2022-10-16T05:08:40;12.80;99.90
51500;DHT22;39101;53.478;6.158;2022-10-16T05:11:06;12.80;99.90
51500;DHT22;39101;53.478;6.158;2022-10-16T05:13:31;12.90;99.90
51500;DHT22;39101;53.478;6.158;2022-10-16T05:15:57;12.90;99.90
51500;DHT22;39101;53.478;6.158;2022-10-16T05:18:23;12.80;99.90
51500;DHT22;39101;53.478;6.158;2022-10-16T05:20:48;12.80;99.90
51500;DHT22;39101;53.478;6.158;2022-10-16T05:23:14;12.90;99.90
51500;DHT22;39101;53.478;6.158;2022-10-16T05:25:40;12.80;99.90
51500;DHT22;39101;53.478;6.158;2022-10-16T05:28:05;12.80;99.90
51500;DHT22;39101;53.478;6.158;2022-10-16T05:30:31;12.80;99.90
51500;DHT22;39101;53.478;6.158;2022-10-16T05:32:56;12.80;99.90
51500;DHT22;39101;53.478;6.158;2022-10-16T05:35:22;12.80;99.90
51500;DHT22;39101;53.478;6.158;2022-10-16T05:37:48;12.90;99.90
51500;DHT22;39101;53.478;6.158;2022-10-16T05:40:14;12.90;99.90
51500;DHT22;39101;53.478;6.158;2022-10-16T05:42:40;12.80;99.90
51500;DHT22;39101;53.478;6.158;2022-10-16T05:45:07;12.80;99.90
51500;DHT22;39101;53.478;6.158;2022-10-16T05:47:34;12.80;99.90
51500;DHT22;39101;53.478;6.158;2022-10-16T05:50:00;12.80;99.90
51500;DHT22;39101;53.478;6.158;2022-10-16T05:52:26;12.80;99.90
51500;DHT22;39101;53.478;6.158;2022-10-16T05:54:52;12.80;99.90
51500;DHT22;39101;53.478;6.158;2022-10-16T05:57:18;12.70;99.90
51500;DHT22;39101;53.478;6.158;2022-10-16T05:59:43;12.80;99.90
51500;DHT22;39101;53.478;6.158;2022-10-16T06:02:13;12.70;99.90
51500;DHT22;39101;53.478;6.158;2022-10-16T06:04:39;12.80;99.90
51500;DHT22;39101;53.478;6.158;2022-10-16T06:07:04;12.80;99.90
51500;DHT22;39101;53.478;6.158;2022-10-16T06:09:30;12.80;99.90
51500;DHT22;39101;53.478;6.158;2022-10-16T06:11:56;12.90;99.90
51500;DHT22;39101;53.478;6.158;2022-10-16T06:14:21;12.80;99.90
51500;DHT22;39101;53.478;6.158;2022-10-16T06:16:47;12.80;99.90
51500;DHT22;39101;53.478;6.158;2022-10-16T06:19:13;12.80;99.90
51500;DHT22;39101;53.478;6.158;2022-10-16T06:21:38;12.80;99.90
51500;DHT22;39101;53.478;6.158;2022-10-16T06:24:04;12.80;99.90
51500;DHT22;39101;53.478;6.158;2022-10-16T06:26:30;12.80;99.90
51500;DHT22;39101;53.478;6.158;2022-10-16T06:28:58;12.80;99.90
51500;DHT22;39101;53.478;6.158;2022-10-16T06:31:24;12.80;99.90
51500;DHT22;39101;53.478;6.158;2022-10-16T06:33:53;12.80;99.90
51500;DHT22;39101;53.478;6.158;2022-10-16T06:36:19;12.80;99.90
51500;DHT22;39101;53.478;6.158;2022-10-16T06:38:45;12.80;99.90
51500;DHT22;39101;53.478;6.158;2022-10-16T06:41:16;12.70;99.90
51500;DHT22;39101;53.478;6.158;2022-10-16T06:43:42;12.70;99.90
51500;DHT22;39101;53.478;6.158;2022-10-16T06:46:11;12.70;99.90
51500;DHT22;39101;53.478;6.158;2022-10-16T06:48:37;12.70;99.90
51500;DHT22;39101;53.478;6.158;2022-10-16T06:53:32;12.80;99.90
51500;DHT22;39101;53.478;6.158;2022-10-16T06:56:05;12.80;99.90
51500;DHT22;39101;53.478;6.158;2022-10-16T06:58:31;12.80;99.90
51500;DHT22;39101;53.478;6.158;2022-10-16T07:00:57;12.80;99.90
51500;DHT22;39101;53.478;6.158;2022-10-16T07:03:22;12.80;99.90
51500;DHT22;39101;53.478;6.158;2022-10-16T07:05:48;12.70;99.90
51500;DHT22;39101;53.478;6.158;2022-10-16T07:08:14;12.90;99.90
51500;DHT22;39101;53.478;6.158;2022-10-16T07:10:39;12.80;99.90
51500;DHT22;39101;53.478;6.158;2022-10-16T07:13:05;12.90;99.90
51500;DHT22;39101;53.478;6.158;2022-10-16T07:15:32;13.00;99.90
51500;DHT22;39101;53.478;6.158;2022-10-16T07:17:58;13.00;99.90
51500;DHT22;39101;53.478;6.158;2022-10-16T07:20:24;13.00;99.90
51500;DHT22;39101;53.478;6.158;2022-10-16T07:22:50;13.10;99.90
51500;DHT22;39101;53.478;6.158;2022-10-16T07:25:17;13.20;99.90
51500;DHT22;39101;53.478;6.158;2022-10-16T07:27:42;13.20;99.90
51500;DHT22;39101;53.478;6.158;2022-10-16T07:30:08;13.20;99.90
51500;DHT22;39101;53.478;6.158;2022-10-16T07:32:34;13.30;99.90
51500;DHT22;39101;53.478;6.158;2022-10-16T07:35:00;13.30;99.90
51500;DHT22;39101;53.478;6.158;2022-10-16T07:37:25;13.40;99.90
51500;DHT22;39101;53.478;6.158;2022-10-16T07:39:51;13.40;99.90
51500;DHT22;39101;53.478;6.158;2022-10-16T07:42:17;13.40;99.90
51500;DHT22;39101;53.478;6.158;2022-10-16T07:44:42;13.40;99.90
51500;DHT22;39101;53.478;6.158;2022-10-16T07:47:09;13.50;99.90
51500;DHT22;39101;53.478;6.158;2022-10-16T07:49:35;13.60;99.90
51500;DHT22;39101;53.478;6.158;2022-10-16T07:52:00;13.70;99.90
51500;DHT22;39101;53.478;6.158;2022-10-16T07:54:26;13.60;99.90
51500;DHT22;39101;53.478;6.158;2022-10-16T07:56:52;13.70;99.90
51500;DHT22;39101;53.478;6.158;2022-10-16T07:59:17;13.70;99.90
51500;DHT22;39101;53.478;6.158;2022-10-16T08:01:43;13.70;99.90
51500;DHT22;39101;53.478;6.158;2022-10-16T08:04:09;13.70;99.90
51500;DHT22;39101;53.478;6.158;2022-10-16T08:06:38;13.80;99.90
51500;DHT22;39101;53.478;6.158;2022-10-16T08:09:04;13.80;99.90
51500;DHT22;39101;53.478;6.158;2022-10-16T08:11:30;13.80;99.90
51500;DHT22;39101;53.478;6.158;2022-10-16T08:13:56;13.80;99.90
51500;DHT22;39101;53.478;6.158;2022-10-16T08:16:21;13.90;99.90
51500;DHT22;39101;53.478;6.158;2022-10-16T08:18:48;14.00;99.90
51500;DHT22;39101;53.478;6.158;2022-10-16T08:21:16;14.00;99.90
51500;DHT22;39101;53.478;6.158;2022-10-16T08:23:42;14.00;99.90
51500;DHT22;39101;53.478;6.158;2022-10-16T08:26:08;14.00;99.90
51500;DHT22;39101;53.478;6.158;2022-10-16T08:28:35;14.00;99.90
51500;DHT22;39101;53.478;6.158;2022-10-16T08:31:15;14.00;99.90
51500;DHT22;39101;53.478;6.158;2022-10-16T08:33:42;14.00;99.90
51500;DHT22;39101;53.478;6.158;2022-10-16T08:36:09;14.10;99.90
51500;DHT22;39101;53.478;6.158;2022-10-16T08:38:35;14.10;99.90
51500;DHT22;39101;53.478;6.158;2022-10-16T08:49:13;14.30;99.90
51500;DHT22;39101;53.478;6.158;2022-10-16T08:51:40;14.40;99.90
51500;DHT22;39101;53.478;6.158;2022-10-16T08:54:31;14.40;99.90
51500;DHT22;39101;53.478;6.158;2022-10-16T08:57:10;14.50;99.90
51500;DHT22;39101;53.478;6.158;2022-10-16T08:59:36;14.50;99.90
51500;DHT22;39101;53.478;6.158;2022-10-16T09:02:24;14.50;99.90
51500;DHT22;39101;53.478;6.158;2022-10-16T09:04:54;14.60;99.90
51500;DHT22;39101;53.478;6.158;2022-10-16T09:07:35;14.60;99.90
51500;DHT22;39101;53.478;6.158;2022-10-16T09:21:26;14.60;99.90
51500;DHT22;39101;53.478;6.158;2022-10-16T09:23:54;14.70;99.90
51500;DHT22;39101;53.478;6.158;2022-10-16T09:26:22;14.80;99.90
51500;DHT22;39101;53.478;6.158;2022-10-16T09:28:48;14.80;99.90
51500;DHT22;39101;53.478;6.158;2022-10-16T09:31:18;14.90;99.90
51500;DHT22;39101;53.478;6.158;2022-10-16T09:33:47;15.00;99.90
51500;DHT22;39101;53.478;6.158;2022-10-16T09:36:14;14.90;99.90
51500;DHT22;39101;53.478;6.158;2022-10-16T09:38:40;14.90;99.90
51500;DHT22;39101;53.478;6.158;2022-10-16T09:41:21;15.00;99.90
51500;DHT22;39101;53.478;6.158;2022-10-16T09:43:56;15.00;99.90
51500;DHT22;39101;53.478;6.158;2022-10-16T09:46:30;15.10;99.90
51500;DHT22;39101;53.478;6.158;2022-10-16T09:48:58;15.20;99.90
51500;DHT22;39101;53.478;6.158;2022-10-16T09:51:32;15.20;99.90
51500;DHT22;39101;53.478;6.158;2022-10-16T09:54:17;15.30;99.90
51500;DHT22;39101;53.478;6.158;2022-10-16T09:56:43;15.50;99.90
51500;DHT22;39101;53.478;6.158;2022-10-16T09:59:14;15.50;99.90
51500;DHT22;39101;53.478;6.158;2022-10-16T10:04:14;15.50;99.90
51500;DHT22;39101;53.478;6.158;2022-10-16T10:06:49;15.50;99.90
51500;DHT22;39101;53.478;6.158;2022-10-16T10:09:22;15.60;99.90
51500;DHT22;39101;53.478;6.158;2022-10-16T10:17:22;15.70;99.90
51500;DHT22;39101;53.478;6.158;2022-10-16T10:22:41;15.70;99.90
51500;DHT22;39101;53.478;6.158;2022-10-16T10:30:22;15.20;99.90
51500;DHT22;39101;53.478;6.158;2022-10-16T10:38:54;15.10;99.90
51500;DHT22;39101;53.478;6.158;2022-10-16T10:45:17;15.20;99.90
51500;DHT22;39101;53.478;6.158;2022-10-16T10:50:41;15.20;99.90
51500;DHT22;39101;53.478;6.158;2022-10-16T11:02:18;15.10;99.90
51500;DHT22;39101;53.478;6.158;2022-10-16T11:07:59;15.10;99.90
51500;DHT22;39101;53.478;6.158;2022-10-16T11:10:57;15.20;99.90
51500;DHT22;39101;53.478;6.158;2022-10-16T11:16:32;15.10;99.90
51500;DHT22;39101;53.478;6.158;2022-10-16T11:19:47;15.00;99.90
51500;DHT22;39101;53.478;6.158;2022-10-16T11:25:11;15.00;99.90
51500;DHT22;39101;53.478;6.158;2022-10-16T11:30:25;15.20;99.90
51500;DHT22;39101;53.478;6.158;2022-10-16T11:33:19;15.20;99.90
51500;DHT22;39101;53.478;6.158;2022-10-16T11:41:37;15.20;99.90
51500;DHT22;39101;53.478;6.158;2022-10-16T11:47:19;15.20;99.90
51500;DHT22;39101;53.478;6.158;2022-10-16T11:49:51;15.20;99.90
51500;DHT22;39101;53.478;6.158;2022-10-16T11:52:44;15.30;99.90
51500;DHT22;39101;53.478;6.158;2022-10-16T11:55:17;15.20;99.90
51500;DHT22;39101;53.478;6.158;2022-10-16T11:57:53;15.20;99.90
51500;DHT22;39101;53.478;6.158;2022-10-16T12:00:34;15.20;99.90
51500;DHT22;39101;53.478;6.158;2022-10-16T12:06:14;15.20;99.90
51500;DHT22;39101;53.478;6.158;2022-10-16T12:08:44;15.20;99.90
51500;DHT22;39101;53.478;6.158;2022-10-16T12:14:03;15.20;99.90
51500;DHT22;39101;53.478;6.158;2022-10-16T12:16:28;15.20;99.90
51500;DHT22;39101;53.478;6.158;2022-10-16T12:19:12;15.20;99.90
51500;DHT22;39101;53.478;6.158;2022-10-16T12:21:38;15.20;99.90
51500;DHT22;39101;53.478;6.158;2022-10-16T12:24:05;15.20;99.90
51500;DHT22;39101;53.478;6.158;2022-10-16T12:26:38;15.30;99.90
51500;DHT22;39101;53.478;6.158;2022-10-16T12:29:29;15.20;99.90
51500;DHT22;39101;53.478;6.158;2022-10-16T12:31:55;15.20;99.90
51500;DHT22;39101;53.478;6.158;2022-10-16T12:34:41;15.30;99.90
51500;DHT22;39101;53.478;6.158;2022-10-16T12:39:37;15.20;99.90
51500;DHT22;39101;53.478;6.158;2022-10-16T12:42:30;15.20;99.90
51500;DHT22;39101;53.478;6.158;2022-10-16T12:44:57;15.20;99.90
51500;DHT22;39101;53.478;6.158;2022-10-16T12:49:57;15.10;99.90
51500;DHT22;39101;53.478;6.158;2022-10-16T12:55:00;15.10;99.90
51500;DHT22;39101;53.478;6.158;2022-10-16T13:05:42;15.10;99.90
51500;DHT22;39101;53.478;6.158;2022-10-16T13:13:34;15.10;99.90
51500;DHT22;39101;53.478;6.158;2022-10-16T13:24:30;15.10;99.90
51500;DHT22;39101;53.478;6.158;2022-10-16T13:27:10;15.10;99.90
51500;DHT22;39101;53.478;6.158;2022-10-16T13:29:39;15.00;99.90
51500;DHT22;39101;53.478;6.158;2022-10-16T13:32:10;15.10;99.90
51500;DHT22;39101;53.478;6.158;2022-10-16T13:34:47;15.00;99.90
51500;DHT22;39101;53.478;6.158;2022-10-16T13:37:32;15.00;99.90
51500;DHT22;39101;53.478;6.158;2022-10-16T13:40:27;15.10;99.90
51500;DHT22;39101;53.478;6.158;2022-10-16T13:42:53;15.00;99.90
51500;DHT22;39101;53.478;6.158;2022-10-16T13:45:24;15.00;99.90
51500;DHT22;39101;53.478;6.158;2022-10-16T13:48:09;15.00;99.90
51500;DHT22;39101;53.478;6.158;2022-10-16T13:50:35;15.10;99.90
51500;DHT22;39101;53.478;6.158;2022-10-16T13:53:05;15.00;99.90
51500;DHT22;39101;53.478;6.158;2022-10-16T13:55:31;15.00;99.90
51500;DHT22;39101;53.478;6.158;2022-10-16T13:58:14;15.10;99.90
51500;DHT22;39101;53.478;6.158;2022-10-16T14:00:52;15.10;99.90
51500;DHT22;39101;53.478;6.158;2022-10-16T14:03:19;15.10;99.90
51500;DHT22;39101;53.478;6.158;2022-10-16T14:05:51;15.00;99.90
51500;DHT22;39101;53.478;6.158;2022-10-16T14:08:17;15.00;99.90
51500;DHT22;39101;53.478;6.158;2022-10-16T14:10:51;15.00;99.90
51500;DHT22;39101;53.478;6.158;2022-10-16T14:13:22;15.00;99.90
51500;DHT22;39101;53.478;6.158;2022-10-16T14:15:51;14.90;99.90
51500;DHT22;39101;53.478;6.158;2022-10-16T14:18:22;15.00;99.90
51500;DHT22;39101;53.478;6.158;2022-10-16T14:20:49;15.00;99.90
51500;DHT22;39101;53.478;6.158;2022-10-16T14:23:29;14.90;99.90
51500;DHT22;39101;53.478;6.158;2022-10-16T14:26:05;15.00;99.90
51500;DHT22;39101;53.478;6.158;2022-10-16T14:28:31;14.90;99.90
51500;DHT22;39101;53.478;6.158;2022-10-16T14:30:59;14.90;99.90
51500;DHT22;39101;53.478;6.158;2022-10-16T14:38:34;14.90;99.90
51500;DHT22;39101;53.478;6.158;2022-10-16T14:41:00;14.90;99.90
51500;DHT22;39101;53.478;6.158;2022-10-16T14:45:56;14.80;99.90
51500;DHT22;39101;53.478;6.158;2022-10-16T14:48:23;14.80;99.90
51500;DHT22;39101;53.478;6.158;2022-10-16T14:50:49;14.70;99.90
51500;DHT22;39101;53.478;6.158;2022-10-16T14:53:15;14.70;99.90
51500;DHT22;39101;53.478;6.158;2022-10-16T14:55:41;14.70;99.90
51500;DHT22;39101;53.478;6.158;2022-10-16T14:58:19;14.60;99.90
51500;DHT22;39101;53.478;6.158;2022-10-16T15:00:45;14.50;99.90
51500;DHT22;39101;53.478;6.158;2022-10-16T15:03:11;14.50;99.90
51500;DHT22;39101;53.478;6.158;2022-10-16T15:05:37;14.50;99.90
51500;DHT22;39101;53.478;6.158;2022-10-16T15:08:03;14.40;99.90
51500;DHT22;39101;53.478;6.158;2022-10-16T15:10:30;14.30;99.90
51500;DHT22;39101;53.478;6.158;2022-10-16T15:12:58;14.20;99.90
51500;DHT22;39101;53.478;6.158;2022-10-16T15:17:53;14.10;99.90
51500;DHT22;39101;53.478;6.158;2022-10-16T15:20:25;14.10;99.90
51500;DHT22;39101;53.478;6.158;2022-10-16T15:22:51;14.00;99.90
51500;DHT22;39101;53.478;6.158;2022-10-16T15:25:46;13.90;99.90
51500;DHT22;39101;53.478;6.158;2022-10-16T15:28:12;13.90;99.90
51500;DHT22;39101;53.478;6.158;2022-10-16T15:30:39;13.90;99.90
51500;DHT22;39101;53.478;6.158;2022-10-16T15:33:16;13.90;99.90
51500;DHT22;39101;53.478;6.158;2022-10-16T15:35:44;13.80;99.90
51500;DHT22;39101;53.478;6.158;2022-10-16T15:38:12;13.80;99.90
51500;DHT22;39101;53.478;6.158;2022-10-16T15:40:39;13.80;99.90
51500;DHT22;39101;53.478;6.158;2022-10-16T15:43:05;13.80;99.90
51500;DHT22;39101;53.478;6.158;2022-10-16T15:45:31;13.70;99.90
51500;DHT22;39101;53.478;6.158;2022-10-16T15:47:57;13.70;99.90
51500;DHT22;39101;53.478;6.158;2022-10-16T15:50:23;13.70;99.90
51500;DHT22;39101;53.478;6.158;2022-10-16T15:52:50;13.60;99.90
51500;DHT22;39101;53.478;6.158;2022-10-16T15:55:16;13.50;99.90
51500;DHT22;39101;53.478;6.158;2022-10-16T15:57:42;13.50;99.90
51500;DHT22;39101;53.478;6.158;2022-10-16T16:00:15;13.50;99.90
51500;DHT22;39101;53.478;6.158;2022-10-16T16:02:42;13.50;99.90
51500;DHT22;39101;53.478;6.158;2022-10-16T16:05:09;13.40;99.90
51500;DHT22;39101;53.478;6.158;2022-10-16T16:07:37;13.40;99.90
51500;DHT22;39101;53.478;6.158;2022-10-16T16:10:04;13.50;99.90
51500;DHT22;39101;53.478;6.158;2022-10-16T16:12:30;13.30;99.90
51500;DHT22;39101;53.478;6.158;2022-10-16T16:14:56;13.30;99.90
51500;DHT22;39101;53.478;6.158;2022-10-16T16:17:22;13.30;99.90
51500;DHT22;39101;53.478;6.158;2022-10-16T16:19:47;13.30;99.90
51500;DHT22;39101;53.478;6.158;2022-10-16T16:22:13;13.30;99.90
51500;DHT22;39101;53.478;6.158;2022-10-16T16:24:39;13.10;99.90
51500;DHT22;39101;53.478;6.158;2022-10-16T16:27:04;13.10;99.90
51500;DHT22;39101;53.478;6.158;2022-10-16T16:29:30;13.10;99.90
51500;DHT22;39101;53.478;6.158;2022-10-16T16:31:56;13.00;99.90
51500;DHT22;39101;53.478;6.158;2022-10-16T16:34:27;12.90;99.90
51500;DHT22;39101;53.478;6.158;2022-10-16T16:36:54;12.80;99.90
51500;DHT22;39101;53.478;6.158;2022-10-16T16:39:20;12.80;99.90
51500;DHT22;39101;53.478;6.158;2022-10-16T16:41:45;12.70;99.90
51500;DHT22;39101;53.478;6.158;2022-10-16T16:44:14;12.60;99.90
51500;DHT22;39101;53.478;6.158;2022-10-16T16:46:40;12.60;99.90
51500;DHT22;39101;53.478;6.158;2022-10-16T16:49:10;12.50;99.90
51500;DHT22;39101;53.478;6.158;2022-10-16T16:51:36;12.60;99.90
51500;DHT22;39101;53.478;6.158;2022-10-16T16:54:02;12.50;99.90
51500;DHT22;39101;53.478;6.158;2022-10-16T16:56:27;12.40;99.90
51500;DHT22;39101;53.478;6.158;2022-10-16T16:58:55;12.40;99.90
51500;DHT22;39101;53.478;6.158;2022-10-16T17:01:23;12.40;99.90
51500;DHT22;39101;53.478;6.158;2022-10-16T17:03:51;12.30;99.90
51500;DHT22;39101;53.478;6.158;2022-10-16T17:06:18;12.40;99.90
51500;DHT22;39101;53.478;6.158;2022-10-16T17:08:44;12.40;99.90
51500;DHT22;39101;53.478;6.158;2022-10-16T17:11:15;12.30;99.90
51500;DHT22;39101;53.478;6.158;2022-10-16T17:13:41;12.30;99.90
51500;DHT22;39101;53.478;6.158;2022-10-16T17:16:08;12.30;99.90
51500;DHT22;39101;53.478;6.158;2022-10-16T17:18:34;12.20;99.90
51500;DHT22;39101;53.478;6.158;2022-10-16T17:21:02;12.20;99.90
51500;DHT22;39101;53.478;6.158;2022-10-16T17:23:28;12.20;99.90
51500;DHT22;39101;53.478;6.158;2022-10-16T17:25:54;12.10;99.90
51500;DHT22;39101;53.478;6.158;2022-10-16T17:28:20;12.20;99.90
51500;DHT22;39101;53.478;6.158;2022-10-16T17:30:45;12.10;99.90
51500;DHT22;39101;53.478;6.158;2022-10-16T17:33:12;12.10;99.90
51500;DHT22;39101;53.478;6.158;2022-10-16T17:35:43;12.00;99.90
51500;DHT22;39101;53.478;6.158;2022-10-16T17:38:10;12.00;99.90
51500;DHT22;39101;53.478;6.158;2022-10-16T17:40:37;12.10;99.90
51500;DHT22;39101;53.478;6.158;2022-10-16T17:43:03;11.90;99.90
51500;DHT22;39101;53.478;6.158;2022-10-16T17:45:29;11.90;99.90
51500;DHT22;39101;53.478;6.158;2022-10-16T17:47:57;11.90;99.90
51500;DHT22;39101;53.478;6.158;2022-10-16T17:50:23;11.90;99.90
51500;DHT22;39101;53.478;6.158;2022-10-16T17:52:49;11.90;99.90
51500;DHT22;39101;53.478;6.158;2022-10-16T17:55:14;11.90;99.90
51500;DHT22;39101;53.478;6.158;2022-10-16T17:57:40;11.90;99.90
51500;DHT22;39101;53.478;6.158;2022-10-16T18:00:06;11.90;99.90
51500;DHT22;39101;53.478;6.158;2022-10-16T18:02:32;11.90;99.90
51500;DHT22;39101;53.478;6.158;2022-10-16T18:04:58;11.90;99.90